createdAt,value
2016-12-05T00:00:58.756Z,964.1
2016-12-05T00:01:58.734Z,964.16
2016-12-05T00:02:58.714Z,964.12
2016-12-05T00:03:58.695Z,964.11
2016-12-05T00:04:58.674Z,964.14
2016-12-05T00:05:58.655Z,964.07
2016-12-05T00:06:58.635Z,964.05
2016-12-05T00:07:58.616Z,964.09
2016-12-05T00:08:58.595Z,964.08
2016-12-05T00:09:58.575Z,964.05
2016-12-05T00:10:58.556Z,964.03
2016-12-05T00:11:58.536Z,964.03
2016-12-05T00:12:58.516Z,964.03
2016-12-05T00:13:58.495Z,964.01
2016-12-05T00:14:58.476Z,963.99
2016-12-05T00:15:58.455Z,963.96
2016-12-05T00:16:58.435Z,963.97
2016-12-05T00:17:58.416Z,963.96
2016-12-05T00:18:58.399Z,964.01
2016-12-05T00:19:58.377Z,963.96
2016-12-05T00:20:58.356Z,963.93
2016-12-05T00:21:58.337Z,963.98
2016-12-05T00:22:58.316Z,963.96
2016-12-05T00:23:58.296Z,963.95
2016-12-05T00:24:58.278Z,963.86
2016-12-05T00:25:58.257Z,963.88
2016-12-05T00:26:58.236Z,963.94
2016-12-05T00:27:58.215Z,963.96
2016-12-05T00:28:58.197Z,963.89
2016-12-05T00:29:58.177Z,963.89
2016-12-05T00:30:58.157Z,963.97
2016-12-05T00:31:58.137Z,963.97
2016-12-05T00:32:58.117Z,963.9
2016-12-05T00:33:58.098Z,963.95
2016-12-05T00:34:58.079Z,964.02
2016-12-05T00:35:58.057Z,963.92
2016-12-05T00:36:58.037Z,963.99
2016-12-05T00:37:58.017Z,963.95
2016-12-05T00:38:57.997Z,963.95
2016-12-05T00:39:57.978Z,963.92
2016-12-05T00:40:57.958Z,964
2016-12-05T00:41:57.937Z,963.89
2016-12-05T00:42:57.918Z,963.85
2016-12-05T00:43:57.898Z,963.88
2016-12-05T00:44:57.879Z,963.84
2016-12-05T00:45:57.860Z,963.88
2016-12-05T00:46:57.838Z,963.81
2016-12-05T00:47:57.820Z,963.86
2016-12-05T00:48:57.798Z,963.88
2016-12-05T00:49:57.779Z,963.87
2016-12-05T00:50:57.759Z,963.92
2016-12-05T00:51:57.739Z,963.83
2016-12-05T00:52:57.718Z,963.89
2016-12-05T00:53:57.698Z,963.98
2016-12-05T00:54:57.679Z,963.9
2016-12-05T00:55:57.659Z,963.89
2016-12-05T00:56:57.638Z,963.93
2016-12-05T00:57:57.620Z,963.9
2016-12-05T00:58:57.599Z,963.89
2016-12-05T00:59:57.579Z,963.86
2016-12-05T01:00:57.558Z,963.83
2016-12-05T01:01:57.539Z,963.86
2016-12-05T01:02:57.520Z,963.78
2016-12-05T01:03:57.498Z,963.85
2016-12-05T01:04:57.479Z,963.8
2016-12-05T01:05:57.459Z,963.82
2016-12-05T01:06:57.439Z,963.86
2016-12-05T01:07:57.419Z,963.89
2016-12-05T01:08:57.399Z,963.9
2016-12-05T01:09:57.379Z,963.84
2016-12-05T01:10:57.359Z,963.89
2016-12-05T01:11:57.340Z,963.9
2016-12-05T01:12:57.319Z,963.96
2016-12-05T01:13:57.300Z,963.94
2016-12-05T01:14:57.279Z,963.94
2016-12-05T01:15:57.259Z,963.98
2016-12-05T01:16:57.240Z,963.95
2016-12-05T01:17:57.220Z,963.87
2016-12-05T01:18:57.199Z,963.88
2016-12-05T01:19:57.180Z,963.91
2016-12-05T01:20:57.161Z,963.9
2016-12-05T01:21:57.139Z,963.88
2016-12-05T01:22:57.118Z,963.9
2016-12-05T01:23:57.100Z,963.88
2016-12-05T01:24:57.079Z,963.89
2016-12-05T01:25:57.060Z,963.84
2016-12-05T01:26:57.039Z,963.93
2016-12-05T01:27:57.019Z,963.93
2016-12-05T01:28:57.001Z,963.84
2016-12-05T01:29:56.980Z,963.87
2016-12-05T01:30:56.962Z,963.89
2016-12-05T01:31:56.940Z,963.91
2016-12-05T01:32:56.920Z,963.87
2016-12-05T01:33:56.900Z,963.82
2016-12-05T01:34:56.880Z,963.84
2016-12-05T01:35:56.860Z,963.82
2016-12-05T01:36:56.840Z,963.8
2016-12-05T01:37:56.822Z,963.82
2016-12-05T01:38:56.802Z,963.82
2016-12-05T01:39:56.781Z,963.81
2016-12-05T01:40:56.762Z,963.84
2016-12-05T01:41:56.742Z,963.84
2016-12-05T01:42:56.722Z,963.78
2016-12-05T01:43:56.700Z,963.82
2016-12-05T01:44:56.681Z,963.84
2016-12-05T01:45:56.662Z,963.83
2016-12-05T01:46:56.642Z,963.76
2016-12-05T01:47:56.621Z,963.79
2016-12-05T01:48:56.601Z,963.79
2016-12-05T01:49:56.581Z,963.76
2016-12-05T01:50:56.562Z,963.79
2016-12-05T01:51:56.539Z,963.77
2016-12-05T01:52:56.519Z,963.76
2016-12-05T01:53:56.500Z,963.74
2016-12-05T01:54:56.480Z,963.71
2016-12-05T01:55:56.460Z,963.73
2016-12-05T01:56:56.441Z,963.72
2016-12-05T01:57:56.420Z,963.71
2016-12-05T01:58:56.400Z,963.72
2016-12-05T01:59:56.381Z,963.74
2016-12-05T02:00:56.361Z,963.72
2016-12-05T02:01:56.345Z,963.66
2016-12-05T02:02:56.321Z,963.7
2016-12-05T02:03:56.301Z,963.61
2016-12-05T02:04:56.282Z,963.62
2016-12-05T02:05:56.260Z,963.62
2016-12-05T02:06:56.240Z,963.67
2016-12-05T02:07:56.220Z,963.61
2016-12-05T02:08:56.200Z,963.59
2016-12-05T02:09:56.181Z,963.59
2016-12-05T02:10:56.160Z,963.65
2016-12-05T02:11:56.142Z,963.62
2016-12-05T02:12:56.119Z,963.57
2016-12-05T02:13:56.099Z,963.58
2016-12-05T02:14:56.080Z,963.53
2016-12-05T02:15:56.060Z,963.58
2016-12-05T02:16:56.038Z,963.52
2016-12-05T02:17:56.019Z,963.51
2016-12-05T02:18:56.000Z,963.53
2016-12-05T02:19:55.979Z,963.59
2016-12-05T02:20:55.959Z,963.56
2016-12-05T02:21:55.939Z,963.53
2016-12-05T02:22:55.919Z,963.56
2016-12-05T02:23:55.897Z,963.6
2016-12-05T02:24:55.878Z,963.51
2016-12-05T02:25:55.860Z,963.51
2016-12-05T02:26:55.839Z,963.52
2016-12-05T02:27:55.818Z,963.47
2016-12-05T02:28:55.798Z,963.48
2016-12-05T02:29:55.780Z,963.46
2016-12-05T02:30:55.758Z,963.44
2016-12-05T02:31:55.737Z,963.38
2016-12-05T02:32:55.719Z,963.38
2016-12-05T02:33:55.697Z,963.39
2016-12-05T02:34:55.677Z,963.4
2016-12-05T02:35:55.658Z,963.39
2016-12-05T02:36:55.638Z,963.41
2016-12-05T02:37:55.617Z,963.43
2016-12-05T02:38:55.597Z,963.4
2016-12-05T02:39:55.577Z,963.44
2016-12-05T02:40:55.558Z,963.45
2016-12-05T02:41:55.537Z,963.41
2016-12-05T02:42:55.517Z,963.43
2016-12-05T02:43:55.497Z,963.39
2016-12-05T02:44:55.477Z,963.46
2016-12-05T02:45:55.457Z,963.43
2016-12-05T02:46:55.437Z,963.4
2016-12-05T02:47:55.416Z,963.43
2016-12-05T02:48:55.397Z,963.41
2016-12-05T02:49:55.377Z,963.46
2016-12-05T02:50:55.359Z,963.39
2016-12-05T02:51:55.339Z,963.39
2016-12-05T02:52:55.318Z,963.44
2016-12-05T02:53:55.298Z,963.48
2016-12-05T02:54:55.278Z,963.5
2016-12-05T02:55:55.258Z,963.47
2016-12-05T02:56:55.238Z,963.41
2016-12-05T02:57:55.217Z,963.41
2016-12-05T02:58:55.198Z,963.41
2016-12-05T02:59:55.183Z,963.4
2016-12-05T03:00:55.158Z,963.41
2016-12-05T03:01:55.138Z,963.43
2016-12-05T03:02:55.118Z,963.36
2016-12-05T03:03:55.097Z,963.35
2016-12-05T03:04:55.077Z,963.34
2016-12-05T03:05:55.058Z,963.34
2016-12-05T03:06:55.038Z,963.33
2016-12-05T03:07:55.017Z,963.33
2016-12-05T03:08:54.997Z,963.3
2016-12-05T03:09:54.977Z,963.35
2016-12-05T03:10:54.957Z,963.31
2016-12-05T03:11:54.938Z,963.31
2016-12-05T03:12:54.917Z,963.3
2016-12-05T03:13:54.897Z,963.29
2016-12-05T03:14:54.876Z,963.27
2016-12-05T03:15:54.856Z,963.17
2016-12-05T03:16:54.837Z,963.2
2016-12-05T03:17:54.817Z,963.18
2016-12-05T03:18:54.795Z,963.23
2016-12-05T03:19:54.777Z,963.23
2016-12-05T03:20:54.756Z,963.16
2016-12-05T03:21:54.736Z,963.21
2016-12-05T03:22:54.715Z,963.26
2016-12-05T03:23:54.697Z,963.19
2016-12-05T03:24:54.676Z,963.2
2016-12-05T03:25:54.656Z,963.2
2016-12-05T03:26:54.637Z,963.18
2016-12-05T03:27:54.616Z,963.17
2016-12-05T03:28:54.596Z,963.21
2016-12-05T03:29:54.575Z,963.15
2016-12-05T03:30:54.556Z,963.14
2016-12-05T03:31:54.535Z,963.15
2016-12-05T03:32:54.515Z,963.16
2016-12-05T03:33:54.496Z,963.23
2016-12-05T03:34:54.475Z,963.21
2016-12-05T03:35:54.456Z,963.17
2016-12-05T03:36:54.436Z,963.22
2016-12-05T03:37:54.415Z,963.15
2016-12-05T03:38:54.396Z,963.18
2016-12-05T03:39:54.377Z,963.24
2016-12-05T03:40:54.356Z,963.15
2016-12-05T03:41:54.336Z,963.18
2016-12-05T03:42:54.317Z,963.17
2016-12-05T03:43:54.297Z,963.16
2016-12-05T03:44:54.276Z,963.18
2016-12-05T03:45:54.257Z,963.15
2016-12-05T03:46:54.237Z,963.12
2016-12-05T03:47:54.216Z,963.1
2016-12-05T03:48:54.197Z,963.12
2016-12-05T03:49:54.178Z,963.09
2016-12-05T03:50:54.157Z,963.12
2016-12-05T03:51:54.137Z,963.08
2016-12-05T03:52:54.118Z,963.08
2016-12-05T03:53:54.098Z,963.05
2016-12-05T03:54:54.077Z,963.04
2016-12-05T03:55:54.058Z,963
2016-12-05T03:56:54.038Z,963.03
2016-12-05T03:57:54.019Z,963.02
2016-12-05T03:58:53.998Z,963.05
2016-12-05T03:59:53.978Z,962.95
2016-12-05T04:00:53.959Z,962.95
2016-12-05T04:01:53.940Z,962.94
2016-12-05T04:02:53.919Z,962.88
2016-12-05T04:03:53.900Z,962.93
2016-12-05T04:04:53.879Z,962.91
2016-12-05T04:05:53.862Z,962.92
2016-12-05T04:06:53.840Z,962.81
2016-12-05T04:07:53.821Z,962.87
2016-12-05T04:08:53.801Z,962.83
2016-12-05T04:09:53.780Z,962.83
2016-12-05T04:10:53.761Z,962.78
2016-12-05T04:11:53.741Z,962.87
2016-12-05T04:12:53.722Z,962.82
2016-12-05T04:13:53.703Z,962.77
2016-12-05T04:14:53.682Z,962.74
2016-12-05T04:15:53.662Z,962.69
2016-12-05T04:16:53.642Z,962.71
2016-12-05T04:17:53.623Z,962.72
2016-12-05T04:18:53.603Z,962.65
2016-12-05T04:19:53.584Z,962.68
2016-12-05T04:20:53.564Z,962.65
2016-12-05T04:21:53.545Z,962.56
2016-12-05T04:22:53.525Z,962.59
2016-12-05T04:23:53.506Z,962.6
2016-12-05T04:24:53.486Z,962.59
2016-12-05T04:25:53.466Z,962.56
2016-12-05T04:26:53.447Z,962.49
2016-12-05T04:27:53.427Z,962.53
2016-12-05T04:28:53.408Z,962.58
2016-12-05T04:29:53.391Z,962.48
2016-12-05T04:30:53.370Z,962.52
2016-12-05T04:31:53.351Z,962.49
2016-12-05T04:32:53.332Z,962.53
2016-12-05T04:33:53.313Z,962.5
2016-12-05T04:34:53.294Z,962.5
2016-12-05T04:35:53.274Z,962.49
2016-12-05T04:36:53.256Z,962.45
2016-12-05T04:37:53.241Z,962.45
2016-12-05T04:38:53.217Z,962.36
2016-12-05T04:39:53.198Z,962.38
2016-12-05T04:40:53.180Z,962.44
2016-12-05T04:41:53.161Z,962.43
2016-12-05T04:42:53.142Z,962.43
2016-12-05T04:43:53.123Z,962.4
2016-12-05T04:44:53.104Z,962.46
2016-12-05T04:45:53.085Z,962.39
2016-12-05T04:46:53.066Z,962.41
2016-12-05T04:47:53.048Z,962.42
2016-12-05T04:48:53.029Z,962.41
2016-12-05T04:49:53.010Z,962.43
2016-12-05T04:50:52.991Z,962.41
2016-12-05T04:51:52.974Z,962.38
2016-12-05T04:52:52.955Z,962.4
2016-12-05T04:53:52.935Z,962.4
2016-12-05T04:54:52.918Z,962.41
2016-12-05T04:55:52.897Z,962.4
2016-12-05T04:56:52.880Z,962.4
2016-12-05T04:57:52.861Z,962.4
2016-12-05T04:58:52.843Z,962.43
2016-12-05T04:59:52.824Z,962.44
2016-12-05T05:00:52.806Z,962.41
2016-12-05T05:01:52.787Z,962.41
2016-12-05T05:02:52.769Z,962.42
2016-12-05T05:03:52.751Z,962.39
2016-12-05T05:04:52.731Z,962.42
2016-12-05T05:05:52.713Z,962.37
2016-12-05T05:06:52.695Z,962.36
2016-12-05T05:07:52.677Z,962.38
2016-12-05T05:08:52.658Z,962.4
2016-12-05T05:09:52.641Z,962.43
2016-12-05T05:10:52.623Z,962.45
2016-12-05T05:11:52.603Z,962.43
2016-12-05T05:12:52.586Z,962.4
2016-12-05T05:13:52.567Z,962.41
2016-12-05T05:14:52.549Z,962.44
2016-12-05T05:15:52.531Z,962.46
2016-12-05T05:16:52.512Z,962.49
2016-12-05T05:17:52.494Z,962.53
2016-12-05T05:18:52.475Z,962.48
2016-12-05T05:19:52.457Z,962.49
2016-12-05T05:20:52.440Z,962.54
2016-12-05T05:21:52.421Z,962.54
2016-12-05T05:22:52.402Z,962.48
2016-12-05T05:23:52.384Z,962.51
2016-12-05T05:24:52.366Z,962.52
2016-12-05T05:25:52.348Z,962.54
2016-12-05T05:26:52.331Z,962.56
2016-12-05T05:27:52.311Z,962.5
2016-12-05T05:28:52.295Z,962.54
2016-12-05T05:29:52.274Z,962.54
2016-12-05T05:30:52.257Z,962.53
2016-12-05T05:31:52.238Z,962.58
2016-12-05T05:32:52.221Z,962.56
2016-12-05T05:33:52.202Z,962.53
2016-12-05T05:34:52.183Z,962.55
2016-12-05T05:35:52.166Z,962.51
2016-12-05T05:36:52.148Z,962.52
2016-12-05T05:37:52.130Z,962.54
2016-12-05T05:38:52.111Z,962.51
2016-12-05T05:39:52.093Z,962.51
2016-12-05T05:40:52.074Z,962.56
2016-12-05T05:41:52.056Z,962.6
2016-12-05T05:42:52.038Z,962.64
2016-12-05T05:43:52.020Z,962.57
2016-12-05T05:44:52.001Z,962.61
2016-12-05T05:45:51.983Z,962.63
2016-12-05T05:46:51.966Z,962.61
2016-12-05T05:47:51.946Z,962.66
2016-12-05T05:48:51.928Z,962.6
2016-12-05T05:49:51.909Z,962.67
2016-12-05T05:50:51.891Z,962.64
2016-12-05T05:51:51.872Z,962.67
2016-12-05T05:52:51.855Z,962.63
2016-12-05T05:53:51.836Z,962.61
2016-12-05T05:54:51.817Z,962.66
2016-12-05T05:55:51.799Z,962.66
2016-12-05T05:56:51.781Z,962.69
2016-12-05T05:57:51.762Z,962.66
2016-12-05T05:58:51.744Z,962.73
2016-12-05T05:59:51.725Z,962.6
2016-12-05T06:00:51.706Z,962.65
2016-12-05T06:01:51.688Z,962.65
2016-12-05T06:02:51.671Z,962.63
2016-12-05T06:03:51.651Z,962.66
2016-12-05T06:04:51.632Z,962.7
2016-12-05T06:05:51.614Z,962.69
2016-12-05T06:06:51.595Z,962.65
2016-12-05T06:07:51.576Z,962.67
2016-12-05T06:08:51.558Z,962.67
2016-12-05T06:09:51.540Z,962.66
2016-12-05T06:10:51.520Z,962.66
2016-12-05T06:11:51.502Z,962.73
2016-12-05T06:12:51.483Z,962.71
2016-12-05T06:13:51.464Z,962.72
2016-12-05T06:14:51.445Z,962.68
2016-12-05T06:15:51.428Z,962.73
2016-12-05T06:16:51.408Z,962.73
2016-12-05T06:17:51.389Z,962.74
2016-12-05T06:18:51.370Z,962.75
2016-12-05T06:19:51.352Z,962.77
2016-12-05T06:20:51.334Z,962.71
2016-12-05T06:21:51.317Z,962.75
2016-12-05T06:22:51.295Z,962.82
2016-12-05T06:23:51.276Z,962.82
2016-12-05T06:24:51.257Z,962.76
2016-12-05T06:25:51.237Z,962.8
2016-12-05T06:26:51.220Z,962.82
2016-12-05T06:27:51.201Z,962.81
2016-12-05T06:28:51.181Z,962.79
2016-12-05T06:29:51.163Z,962.84
2016-12-05T06:30:51.144Z,962.81
2016-12-05T06:31:51.126Z,962.76
2016-12-05T06:32:51.105Z,962.77
2016-12-05T06:33:51.087Z,962.83
2016-12-05T06:34:51.068Z,962.78
2016-12-05T06:35:51.048Z,962.8
2016-12-05T06:36:51.029Z,962.74
2016-12-05T06:37:51.010Z,962.75
2016-12-05T06:38:50.991Z,962.76
2016-12-05T06:39:50.971Z,962.79
2016-12-05T06:40:50.952Z,962.75
2016-12-05T06:41:50.934Z,962.76
2016-12-05T06:42:50.915Z,962.75
2016-12-05T06:43:50.896Z,962.76
2016-12-05T06:44:50.877Z,962.73
2016-12-05T06:45:50.858Z,962.8
2016-12-05T06:46:50.838Z,962.74
2016-12-05T06:47:50.819Z,962.73
2016-12-05T06:48:50.800Z,962.73
2016-12-05T06:49:50.781Z,962.73
2016-12-05T06:50:50.761Z,962.76
2016-12-05T06:51:50.743Z,962.82
2016-12-05T06:52:50.723Z,962.77
2016-12-05T06:53:50.704Z,962.78
2016-12-05T06:54:50.731Z,962.75
2016-12-05T06:55:50.665Z,962.74
2016-12-05T06:56:50.646Z,962.78
2016-12-05T06:57:50.625Z,962.81
2016-12-05T06:58:50.607Z,962.81
2016-12-05T06:59:50.587Z,962.79
2016-12-05T07:00:50.569Z,962.78
2016-12-05T07:01:50.548Z,962.79
2016-12-05T07:02:50.529Z,962.81
2016-12-05T07:03:50.510Z,962.74
2016-12-05T07:04:50.490Z,962.76
2016-12-05T07:05:50.470Z,962.81
2016-12-05T07:06:50.451Z,962.82
2016-12-05T07:07:50.432Z,962.79
2016-12-05T07:08:50.412Z,962.86
2016-12-05T07:09:50.393Z,962.86
2016-12-05T07:10:50.373Z,962.86
2016-12-05T07:11:50.355Z,962.88
2016-12-05T07:12:50.334Z,962.88
2016-12-05T07:13:50.315Z,962.89
2016-12-05T07:14:50.295Z,962.87
2016-12-05T07:15:50.276Z,962.94
2016-12-05T07:16:50.256Z,962.91
2016-12-05T07:17:50.236Z,962.9
2016-12-05T07:18:50.217Z,962.91
2016-12-05T07:19:50.197Z,962.95
2016-12-05T07:20:50.177Z,962.93
2016-12-05T07:21:50.157Z,962.91
2016-12-05T07:22:50.138Z,962.88
2016-12-05T07:23:50.118Z,962.91
2016-12-05T07:24:50.099Z,962.9
2016-12-05T07:25:50.079Z,962.92
2016-12-05T07:26:50.060Z,962.88
2016-12-05T07:27:50.039Z,962.91
2016-12-05T07:28:50.020Z,962.92
2016-12-05T07:29:50.001Z,962.89
2016-12-05T07:30:49.980Z,962.88
2016-12-05T07:31:49.961Z,962.92
2016-12-05T07:32:49.941Z,962.92
2016-12-05T07:33:49.923Z,962.9
2016-12-05T07:34:49.902Z,962.95
2016-12-05T07:35:49.882Z,962.88
2016-12-05T07:36:49.864Z,962.92
2016-12-05T07:37:49.844Z,962.89
2016-12-05T07:38:49.823Z,962.92
2016-12-05T07:39:49.804Z,962.88
2016-12-05T07:40:49.784Z,962.9
2016-12-05T07:41:49.766Z,962.9
2016-12-05T07:42:49.744Z,962.91
2016-12-05T07:43:49.726Z,962.91
2016-12-05T07:44:49.706Z,962.89
2016-12-05T07:45:49.686Z,962.92
2016-12-05T07:46:49.667Z,962.93
2016-12-05T07:47:49.648Z,962.95
2016-12-05T07:48:49.626Z,962.94
2016-12-05T07:49:49.676Z,962.92
2016-12-05T07:50:49.588Z,962.91
2016-12-05T07:51:49.587Z,962.91
2016-12-05T07:52:49.587Z,962.92
2016-12-05T07:53:49.528Z,962.94
2016-12-05T07:54:49.509Z,962.96
2016-12-05T07:55:49.490Z,962.96
2016-12-05T07:56:49.481Z,962.92
2016-12-05T07:57:49.452Z,962.95
2016-12-05T07:58:49.431Z,962.98
2016-12-05T07:59:49.412Z,962.99
2016-12-05T08:00:49.463Z,962.97
2016-12-05T08:01:49.373Z,962.98
2016-12-05T08:02:49.352Z,962.97
2016-12-05T08:03:49.332Z,962.96
2016-12-05T08:04:49.313Z,962.98
2016-12-05T08:05:49.293Z,962.93
2016-12-05T08:06:49.274Z,962.92
2016-12-05T08:07:49.255Z,962.94
2016-12-05T08:08:49.234Z,962.89
2016-12-05T08:09:49.216Z,962.97
2016-12-05T08:10:49.195Z,962.96
2016-12-05T08:11:49.175Z,962.98
2016-12-05T08:12:49.156Z,962.93
2016-12-05T08:13:49.136Z,962.93
2016-12-05T08:14:49.116Z,962.95
2016-12-05T08:15:49.097Z,962.95
2016-12-05T08:16:49.077Z,962.91
2016-12-05T08:17:49.058Z,962.91
2016-12-05T08:18:49.039Z,962.91
2016-12-05T08:19:49.020Z,962.92
2016-12-05T08:20:49.001Z,962.93
2016-12-05T08:21:48.980Z,962.92
2016-12-05T08:22:48.964Z,962.89
2016-12-05T08:23:48.956Z,962.94
2016-12-05T08:24:48.923Z,962.88
2016-12-05T08:25:48.903Z,962.91
2016-12-05T08:26:48.883Z,962.88
2016-12-05T08:27:48.864Z,962.87
2016-12-05T08:28:48.843Z,962.86
2016-12-05T08:29:48.825Z,962.85
2016-12-05T08:30:48.805Z,962.83
2016-12-05T08:31:48.786Z,962.87
2016-12-05T08:32:48.766Z,962.89
2016-12-05T08:33:48.746Z,962.9
2016-12-05T08:34:48.728Z,962.89
2016-12-05T08:35:48.707Z,962.87
2016-12-05T08:36:48.688Z,962.87
2016-12-05T08:37:48.669Z,962.87
2016-12-05T08:38:48.649Z,962.88
2016-12-05T08:39:48.629Z,962.9
2016-12-05T08:40:48.610Z,962.87
2016-12-05T08:41:48.592Z,962.89
2016-12-05T08:42:48.572Z,962.93
2016-12-05T08:43:48.553Z,962.89
2016-12-05T08:44:48.532Z,962.95
2016-12-05T08:45:48.514Z,962.96
2016-12-05T08:46:48.495Z,962.95
2016-12-05T08:47:48.475Z,962.95
2016-12-05T08:48:48.455Z,962.91
2016-12-05T08:49:48.436Z,962.94
2016-12-05T08:50:48.416Z,962.89
2016-12-05T08:51:48.398Z,962.86
2016-12-05T08:52:48.379Z,962.91
2016-12-05T08:53:48.359Z,962.83
2016-12-05T08:54:48.340Z,962.84
2016-12-05T08:55:48.321Z,962.89
2016-12-05T08:56:48.301Z,962.85
2016-12-05T08:57:48.283Z,962.86
2016-12-05T08:58:48.262Z,962.8
2016-12-05T08:59:48.244Z,962.81
2016-12-05T09:00:48.225Z,962.82
2016-12-05T09:01:48.205Z,962.79
2016-12-05T09:02:48.187Z,962.83
2016-12-05T09:03:48.167Z,962.89
2016-12-05T09:04:48.150Z,962.85
2016-12-05T09:05:48.129Z,962.86
2016-12-05T09:06:48.111Z,962.8
2016-12-05T09:07:48.092Z,962.88
2016-12-05T09:08:48.073Z,962.84
2016-12-05T09:09:48.053Z,962.84
2016-12-05T09:10:48.034Z,962.84
2016-12-05T09:11:48.016Z,962.85
2016-12-05T09:12:47.996Z,962.81
2016-12-05T09:13:47.977Z,962.81
2016-12-05T09:14:47.959Z,962.8
2016-12-05T09:15:47.940Z,962.83
2016-12-05T09:16:47.921Z,962.83
2016-12-05T09:17:47.902Z,962.81
2016-12-05T09:18:47.883Z,962.81
2016-12-05T09:19:47.865Z,962.77
2016-12-05T09:20:47.845Z,962.83
2016-12-05T09:21:47.826Z,962.78
2016-12-05T09:22:47.813Z,962.81
2016-12-05T09:23:47.788Z,962.79
2016-12-05T09:24:47.769Z,962.78
2016-12-05T09:25:47.756Z,962.75
2016-12-05T09:26:47.732Z,962.82
2016-12-05T09:27:47.713Z,962.81
2016-12-05T09:28:47.695Z,962.82
2016-12-05T09:29:47.676Z,962.82
2016-12-05T09:30:47.658Z,962.86
2016-12-05T09:31:47.638Z,962.83
2016-12-05T09:32:47.620Z,962.88
2016-12-05T09:33:47.602Z,962.81
2016-12-05T09:34:47.583Z,962.83
2016-12-05T09:35:47.564Z,962.84
2016-12-05T09:36:47.546Z,962.83
2016-12-05T09:37:47.528Z,962.83
2016-12-05T09:38:47.509Z,962.85
2016-12-05T09:39:47.491Z,962.83
2016-12-05T09:40:47.474Z,962.84
2016-12-05T09:41:47.455Z,962.84
2016-12-05T09:42:47.435Z,962.81
2016-12-05T09:43:47.418Z,962.82
2016-12-05T09:44:47.400Z,962.79
2016-12-05T09:45:47.381Z,962.82
2016-12-05T09:46:47.364Z,962.77
2016-12-05T09:47:47.345Z,962.76
2016-12-05T09:48:47.327Z,962.82
2016-12-05T09:49:47.308Z,962.77
2016-12-05T09:50:47.292Z,962.75
2016-12-05T09:51:47.274Z,962.72
2016-12-05T09:52:47.255Z,962.75
2016-12-05T09:53:47.238Z,962.72
2016-12-05T09:54:47.220Z,962.73
2016-12-05T09:55:47.202Z,962.71
2016-12-05T09:56:47.184Z,962.7
2016-12-05T09:57:47.166Z,962.67
2016-12-05T09:58:47.148Z,962.66
2016-12-05T09:59:47.131Z,962.67
2016-12-05T10:00:47.114Z,962.7
2016-12-05T10:01:47.095Z,962.65
2016-12-05T10:02:47.077Z,962.63
2016-12-05T10:03:47.057Z,962.65
2016-12-05T10:04:47.040Z,962.67
2016-12-05T10:05:47.023Z,962.64
2016-12-05T10:06:47.005Z,962.61
2016-12-05T10:07:46.986Z,962.63
2016-12-05T10:08:46.969Z,962.57
2016-12-05T10:09:46.952Z,962.56
2016-12-05T10:10:46.934Z,962.57
2016-12-05T10:11:46.916Z,962.58
2016-12-05T10:12:46.898Z,962.56
2016-12-05T10:13:46.881Z,962.54
2016-12-05T10:14:46.863Z,962.54
2016-12-05T10:15:46.845Z,962.49
2016-12-05T10:16:46.827Z,962.46
2016-12-05T10:17:46.809Z,962.49
2016-12-05T10:18:46.792Z,962.54
2016-12-05T10:19:46.774Z,962.5
2016-12-05T10:20:46.757Z,962.48
2016-12-05T10:21:46.739Z,962.48
2016-12-05T10:22:46.721Z,962.51
2016-12-05T10:23:46.704Z,962.48
2016-12-05T10:24:46.686Z,962.43
2016-12-05T10:25:46.670Z,962.4
2016-12-05T10:26:46.650Z,962.39
2016-12-05T10:27:46.635Z,962.45
2016-12-05T10:28:46.618Z,962.39
2016-12-05T10:29:46.600Z,962.45
2016-12-05T10:30:46.583Z,962.39
2016-12-05T10:31:46.565Z,962.45
2016-12-05T10:32:46.548Z,962.4
2016-12-05T10:33:46.531Z,962.44
2016-12-05T10:34:46.514Z,962.46
2016-12-05T10:35:46.497Z,962.46
2016-12-05T10:36:46.479Z,962.44
2016-12-05T10:37:46.463Z,962.42
2016-12-05T10:38:46.446Z,962.43
2016-12-05T10:39:46.429Z,962.44
2016-12-05T10:40:46.412Z,962.36
2016-12-05T10:41:46.395Z,962.45
2016-12-05T10:42:46.378Z,962.42
2016-12-05T10:43:46.361Z,962.42
2016-12-05T10:44:46.344Z,962.43
2016-12-05T10:45:46.327Z,962.4
2016-12-05T10:46:46.310Z,962.41
2016-12-05T10:47:46.293Z,962.43
2016-12-05T10:48:46.276Z,962.4
2016-12-05T10:49:46.260Z,962.4
2016-12-05T10:50:46.243Z,962.39
2016-12-05T10:51:46.226Z,962.36
2016-12-05T10:52:46.258Z,962.38
2016-12-05T10:53:46.195Z,962.35
2016-12-05T10:54:46.177Z,962.37
2016-12-05T10:55:46.161Z,962.35
2016-12-05T10:56:46.143Z,962.35
2016-12-05T10:57:46.127Z,962.35
2016-12-05T10:58:46.110Z,962.37
2016-12-05T10:59:46.094Z,962.33
2016-12-05T11:00:46.077Z,962.36
2016-12-05T11:01:46.061Z,962.37
2016-12-05T11:02:46.045Z,962.34
2016-12-05T11:03:46.027Z,962.34
2016-12-05T11:04:46.012Z,962.38
2016-12-05T11:05:45.995Z,962.36
2016-12-05T11:06:45.980Z,962.3
2016-12-05T11:07:45.962Z,962.3
2016-12-05T11:08:45.947Z,962.27
2016-12-05T11:09:45.929Z,962.27
2016-12-05T11:10:45.914Z,962.25
2016-12-05T11:11:45.897Z,962.29
2016-12-05T11:12:45.882Z,962.32
2016-12-05T11:13:45.865Z,962.28
2016-12-05T11:14:45.849Z,962.29
2016-12-05T11:15:45.834Z,962.28
2016-12-05T11:16:45.817Z,962.25
2016-12-05T11:17:45.800Z,962.29
2016-12-05T11:18:45.784Z,962.28
2016-12-05T11:19:45.768Z,962.29
2016-12-05T11:20:45.751Z,962.29
2016-12-05T11:21:45.736Z,962.28
2016-12-05T11:22:45.720Z,962.28
2016-12-05T11:23:45.704Z,962.24
2016-12-05T11:24:45.687Z,962.22
2016-12-05T11:25:45.671Z,962.19
2016-12-05T11:26:45.656Z,962.2
2016-12-05T11:27:45.639Z,962.18
2016-12-05T11:28:45.624Z,962.21
2016-12-05T11:29:45.608Z,962.2
2016-12-05T11:30:45.592Z,962.2
2016-12-05T11:31:45.626Z,962.21
2016-12-05T11:32:45.560Z,962.18
2016-12-05T11:33:45.544Z,962.17
2016-12-05T11:34:45.529Z,962.19
2016-12-05T11:35:45.512Z,962.18
2016-12-05T11:36:45.497Z,962.18
2016-12-05T11:37:45.481Z,962.12
2016-12-05T11:38:45.464Z,962.11
2016-12-05T11:39:45.449Z,962.12
2016-12-05T11:40:45.434Z,962.11
2016-12-05T11:41:45.417Z,962.11
2016-12-05T11:42:45.401Z,962.06
2016-12-05T11:43:45.385Z,962.1
2016-12-05T11:44:45.370Z,962.11
2016-12-05T11:45:45.354Z,962.12
2016-12-05T11:46:45.337Z,962.1
2016-12-05T11:47:45.322Z,962.1
2016-12-05T11:48:45.306Z,962.11
2016-12-05T11:49:45.291Z,962.08
2016-12-05T11:50:45.276Z,962.15
2016-12-05T11:51:45.260Z,962.09
2016-12-05T11:52:45.244Z,962.12
2016-12-05T11:53:45.228Z,962.14
2016-12-05T11:54:45.213Z,962.11
2016-12-05T11:55:45.196Z,962.09
2016-12-05T11:56:45.182Z,962.11
2016-12-05T11:57:45.165Z,962.08
2016-12-05T11:58:45.150Z,962.12
2016-12-05T11:59:45.137Z,962.1
2016-12-05T12:00:45.118Z,962.09
2016-12-05T12:01:45.103Z,962.1
2016-12-05T12:02:45.089Z,962.13
2016-12-05T12:03:45.072Z,962.12
2016-12-05T12:04:45.057Z,962.12
2016-12-05T12:05:45.041Z,962.12
2016-12-05T12:06:45.026Z,962.09
2016-12-05T12:07:45.010Z,962.1
2016-12-05T12:08:44.995Z,962.05
2016-12-05T12:09:44.982Z,962.07
2016-12-05T12:10:44.964Z,962.06
2016-12-05T12:11:44.947Z,962.09
2016-12-05T12:12:44.933Z,962.14
2016-12-05T12:13:44.918Z,962.07
2016-12-05T12:14:44.902Z,962.07
2016-12-05T12:15:44.886Z,962.08
2016-12-05T12:16:44.871Z,962.06
2016-12-05T12:17:44.857Z,962.05
2016-12-05T12:18:44.841Z,962.03
2016-12-05T12:19:44.824Z,962.05
2016-12-05T12:20:44.809Z,962.01
2016-12-05T12:21:44.795Z,962.06
2016-12-05T12:22:44.777Z,962.04
2016-12-05T12:23:44.763Z,961.99
2016-12-05T12:24:44.748Z,962.04
2016-12-05T12:25:44.734Z,962.01
2016-12-05T12:26:44.717Z,962
2016-12-05T12:27:44.701Z,961.96
2016-12-05T12:28:44.685Z,961.97
2016-12-05T12:29:44.671Z,961.98
2016-12-05T12:30:44.655Z,961.93
2016-12-05T12:31:44.640Z,961.93